Terminal Aerodrome Forecast
Issued by NWS Melbourne, FL

Home | Current Version | Previous Version | Text Only | Print | Product List | Glossary On
Versions: 1 2 3 4 5 6 7 8 9 10 11 12 13 14 15 16 17 18 19 20 21 22 23
884
FTUS42 KMLB 251309 AAB
TAFMLB
TAF AMD
KMLB 251309Z 2513/2612 27006KT P6SM SCT002 BKN006
      TEMPO 2513/2514 5SM BR SCT006
     FM251400 26008KT P6SM SCT015 SCT040
     FM260000 25006KT P6SM SCT035
     FM260600 34011KT P6SM SKC=

USA.gov is the U.S. government's official web portal to all federal, state and local government web resources and services.